METAR/TAF

Belfast City Airport
BELFAST HARBOUR
Metar
EGAC 231720Z AUTO 12008KT 080V170 9999 NCD 16/09 Q0995

17:20 UTC

Wind: 120° 8kt

Visibility: 9999 m

Sky:

Temp: 16 deg C / 60.8 deg F

Dewpoint: 9 deg C / 48.2 deg F

Pressure: 995 hPa

TAF
TAF AMD EGAC 231628Z 2316/2321 09012KT 9999 FEW045
Belfast International Airport
BELFAST/ALDERGRO
Metar
EGAA 231720Z 13014KT CAVOK 16/08 Q0995

17:20 UTC

Wind: 130° 14kt

Visibility:

Sky:

Temp: 16 deg C / 60.8 deg F

Dewpoint: 8 deg C / 46.4 deg F

Pressure: 995 hPa

TAF
TAF EGAA 231100Z 2312/2412 10010KT 9999 FEW045 TEMPO 2313/2403 10015G25KT PROB30 TEMPO 2402/2405 8000 -SHRA BECMG 2403/2406 10018G28KT
Print Friendly, PDF & Email